createdAt,value
2022-10-13T00:00:18.283Z,2.10
2022-10-13T00:03:06.749Z,2.10
2022-10-13T00:05:54.058Z,2.10
2022-10-13T00:08:43.296Z,2.10
2022-10-13T00:11:31.166Z,2.10
2022-10-13T00:14:18.822Z,2.00
2022-10-13T00:17:06.662Z,2.00
2022-10-13T00:19:54.044Z,2.00
2022-10-13T00:22:41.445Z,2.00
2022-10-13T00:25:30.374Z,2.00
2022-10-13T00:28:19.065Z,2.00
2022-10-13T00:31:15.956Z,2.00
2022-10-13T00:34:03.854Z,2.00
2022-10-13T00:36:51.566Z,2.00
2022-10-13T00:39:39.175Z,2.00
2022-10-13T00:42:28.384Z,2.00
2022-10-13T00:45:22.860Z,2.00
2022-10-13T00:48:10.915Z,2.00
2022-10-13T00:50:59.429Z,1.90
2022-10-13T00:53:48.508Z,2.00
2022-10-13T00:56:37.763Z,1.90
2022-10-13T00:59:29.157Z,1.90
2022-10-13T01:02:17.290Z,1.90
2022-10-13T01:05:05.737Z,1.90
2022-10-13T01:07:53.554Z,1.90
2022-10-13T01:10:46.309Z,1.90
2022-10-13T01:13:40.060Z,1.90
2022-10-13T01:16:32.808Z,1.90
2022-10-13T01:19:41.364Z,1.90
2022-10-13T01:22:39.444Z,1.80
2022-10-13T01:25:32.682Z,1.80
2022-10-13T01:28:32.015Z,1.90
2022-10-13T01:31:22.066Z,1.90
2022-10-13T01:34:11.492Z,1.90
2022-10-13T01:37:01.876Z,1.90
2022-10-13T01:39:54.945Z,1.90
2022-10-13T01:42:47.675Z,1.90
2022-10-13T01:45:38.305Z,1.80
2022-10-13T01:48:27.438Z,1.80
2022-10-13T01:51:17.013Z,1.80
2022-10-13T01:54:04.314Z,1.80
2022-10-13T01:56:53.431Z,1.80
2022-10-13T01:59:41.214Z,1.80
2022-10-13T02:02:32.238Z,1.80
2022-10-13T02:05:25.061Z,1.80
2022-10-13T02:08:14.906Z,1.80
2022-10-13T02:11:06.922Z,1.90
2022-10-13T02:13:59.039Z,1.90
2022-10-13T02:16:48.491Z,2.00
2022-10-13T02:19:37.312Z,2.00
2022-10-13T02:22:29.141Z,2.00
2022-10-13T02:25:20.129Z,2.00
2022-10-13T02:28:08.522Z,2.00
2022-10-13T02:31:03.819Z,1.90
2022-10-13T02:33:51.265Z,1.90
2022-10-13T02:36:39.769Z,1.90
2022-10-13T02:39:29.225Z,1.90
2022-10-13T02:42:17.561Z,1.90
2022-10-13T02:45:06.146Z,1.90
2022-10-13T02:47:54.014Z,1.90
2022-10-13T02:50:41.947Z,1.90
2022-10-13T02:53:29.476Z,1.90
2022-10-13T02:56:18.976Z,1.90
2022-10-13T02:59:06.740Z,1.90
2022-10-13T03:01:54.326Z,1.90
2022-10-13T03:04:41.888Z,1.90
2022-10-13T03:07:29.772Z,1.80
2022-10-13T03:10:17.572Z,1.80
2022-10-13T03:13:06.215Z,1.80
2022-10-13T03:15:53.732Z,1.80
2022-10-13T03:18:41.188Z,1.70
2022-10-13T03:21:28.596Z,1.70
2022-10-13T03:24:16.155Z,1.60
2022-10-13T03:27:03.956Z,1.70
2022-10-13T03:29:53.085Z,1.60
2022-10-13T03:32:40.737Z,1.60
2022-10-13T03:35:28.499Z,1.60
2022-10-13T03:38:15.836Z,1.60
2022-10-13T03:41:05.767Z,1.60
2022-10-13T03:43:53.537Z,1.60
2022-10-13T03:46:42.345Z,1.60
2022-10-13T03:49:29.483Z,1.60
2022-10-13T03:52:17.207Z,1.60
2022-10-13T03:55:05.346Z,1.60
2022-10-13T03:57:53.112Z,1.50
2022-10-13T04:00:40.737Z,1.50
2022-10-13T04:03:30.024Z,1.50
2022-10-13T04:06:17.919Z,1.50
2022-10-13T04:09:05.359Z,1.60
2022-10-13T04:11:53.189Z,1.50
2022-10-13T04:14:40.665Z,1.50
2022-10-13T04:17:29.012Z,1.50
2022-10-13T04:20:18.358Z,1.50
2022-10-13T04:23:06.107Z,1.40
2022-10-13T04:25:56.552Z,1.40
2022-10-13T04:28:44.118Z,1.40
2022-10-13T04:31:32.421Z,1.40
2022-10-13T04:34:20.798Z,1.40
2022-10-13T04:37:09.425Z,1.40
2022-10-13T04:39:56.950Z,1.30
2022-10-13T04:42:44.464Z,1.30
2022-10-13T04:45:31.825Z,1.30
2022-10-13T04:48:19.008Z,1.30
2022-10-13T04:51:08.036Z,1.30
2022-10-13T04:54:15.619Z,1.20
2022-10-13T04:57:02.907Z,1.20
2022-10-13T04:59:50.558Z,1.20
2022-10-13T05:02:38.250Z,1.20
2022-10-13T05:05:25.459Z,1.20
2022-10-13T05:08:13.203Z,1.30
2022-10-13T05:11:02.781Z,1.30
2022-10-13T05:13:50.203Z,1.30
2022-10-13T05:16:37.752Z,1.20
2022-10-13T05:19:25.179Z,1.20
2022-10-13T05:22:12.537Z,1.20
2022-10-13T05:25:02.395Z,1.30
2022-10-13T05:27:51.737Z,1.30
2022-10-13T05:30:39.345Z,1.30
2022-10-13T05:33:27.060Z,1.30
2022-10-13T05:36:15.603Z,1.30
2022-10-13T05:39:04.314Z,1.40
2022-10-13T05:41:51.871Z,1.50
2022-10-13T05:44:44.797Z,1.60
2022-10-13T05:47:32.245Z,1.60
2022-10-13T05:50:19.877Z,1.70
2022-10-13T05:53:07.450Z,1.80
2022-10-13T05:55:56.074Z,1.90
2022-10-13T05:58:46.292Z,2.00
2022-10-13T06:01:37.551Z,2.10
2022-10-13T06:04:27.043Z,2.20
2022-10-13T06:07:14.479Z,2.30
2022-10-13T06:10:02.443Z,2.40
2022-10-13T06:12:49.962Z,2.50
2022-10-13T06:15:37.761Z,2.70
2022-10-13T06:18:27.207Z,2.90
2022-10-13T06:21:14.980Z,3.00
2022-10-13T06:24:02.493Z,3.20
2022-10-13T06:26:50.193Z,3.30
2022-10-13T06:29:38.576Z,3.50
2022-10-13T06:32:26.280Z,3.70
2022-10-13T06:35:15.481Z,3.90
2022-10-13T06:38:03.364Z,4.20
2022-10-13T06:40:51.372Z,4.40
2022-10-13T06:43:41.420Z,4.60
2022-10-13T06:46:31.356Z,4.70
2022-10-13T06:49:19.742Z,4.90
2022-10-13T06:52:08.933Z,5.00
2022-10-13T06:54:56.758Z,5.20
2022-10-13T06:57:44.257Z,5.40
2022-10-13T07:00:31.975Z,5.50
2022-10-13T07:03:19.862Z,5.70
2022-10-13T07:06:08.720Z,5.80
2022-10-13T07:08:58.134Z,5.90
2022-10-13T07:11:46.443Z,6.10
2022-10-13T07:14:33.811Z,6.20
2022-10-13T07:17:22.041Z,6.40
2022-10-13T07:20:10.048Z,6.50
2022-10-13T07:22:57.517Z,6.70
2022-10-13T07:25:47.592Z,6.80
2022-10-13T07:28:35.656Z,7.00
2022-10-13T07:31:23.360Z,7.10
2022-10-13T07:34:14.442Z,7.30
2022-10-13T07:37:02.153Z,7.40
2022-10-13T07:39:50.384Z,7.50
2022-10-13T07:42:39.702Z,7.60
2022-10-13T07:45:27.389Z,7.80
2022-10-13T07:48:14.994Z,7.90
2022-10-13T07:51:07.342Z,8.10
2022-10-13T07:53:55.755Z,8.20
2022-10-13T07:56:43.576Z,8.30
2022-10-13T07:59:33.592Z,8.50
2022-10-13T08:02:21.643Z,8.60
2022-10-13T08:05:10.659Z,8.80
2022-10-13T08:07:58.857Z,8.90
2022-10-13T08:10:46.960Z,9.20
2022-10-13T08:13:35.216Z,9.40
2022-10-13T08:16:35.549Z,9.50
2022-10-13T08:19:23.868Z,9.60
2022-10-13T08:22:12.307Z,9.70
2022-10-13T08:25:01.273Z,9.90
2022-10-13T08:27:51.387Z,10.10
2022-10-13T08:30:39.806Z,10.20
2022-10-13T08:33:29.376Z,10.30
2022-10-13T08:36:18.307Z,10.60
2022-10-13T08:39:06.871Z,10.80
2022-10-13T08:41:56.616Z,11.00
2022-10-13T08:45:21.844Z,11.10
2022-10-13T08:48:00.189Z,11.30
2022-10-13T08:50:51.955Z,11.40
2022-10-13T08:53:42.559Z,11.60
2022-10-13T08:56:36.463Z,11.80
2022-10-13T08:59:24.536Z,11.90
2022-10-13T09:02:15.464Z,12.20
2022-10-13T09:05:04.697Z,12.40
2022-10-13T09:07:55.007Z,12.60
2022-10-13T09:10:50.464Z,12.80
2022-10-13T09:13:43.970Z,12.90
2022-10-13T09:16:36.152Z,13.10
2022-10-13T09:19:28.657Z,13.10
2022-10-13T09:22:23.219Z,13.30
2022-10-13T09:25:23.581Z,13.50
2022-10-13T09:28:17.016Z,13.70
2022-10-13T09:31:11.622Z,13.90
2022-10-13T09:34:03.244Z,14.00
2022-10-13T09:36:59.010Z,14.20
2022-10-13T09:39:47.373Z,14.40
2022-10-13T09:42:37.040Z,14.60
2022-10-13T09:45:27.861Z,14.80
2022-10-13T09:48:22.269Z,15.00
2022-10-13T09:51:32.425Z,15.20
2022-10-13T09:54:28.539Z,15.50
2022-10-13T09:57:27.200Z,15.70
2022-10-13T10:00:23.122Z,15.90
2022-10-13T10:03:18.619Z,16.10
2022-10-13T10:09:05.893Z,16.40
2022-10-13T10:11:56.513Z,16.50
2022-10-13T10:14:45.104Z,16.60
2022-10-13T10:17:42.278Z,16.80
2022-10-13T10:20:48.755Z,17.10
2022-10-13T10:23:46.427Z,17.30
2022-10-13T10:26:50.248Z,17.50
2022-10-13T10:29:47.768Z,17.60
2022-10-13T10:32:45.623Z,17.80
2022-10-13T10:35:42.628Z,17.90
2022-10-13T10:38:40.815Z,18.10
2022-10-13T10:41:44.685Z,18.20
2022-10-13T10:44:34.629Z,18.40
2022-10-13T10:47:27.247Z,18.60
2022-10-13T10:50:17.296Z,18.80
2022-10-13T10:53:07.813Z,18.90
2022-10-13T10:56:00.716Z,18.90
2022-10-13T10:58:54.837Z,19.00
2022-10-13T11:01:48.545Z,19.10
2022-10-13T11:04:41.533Z,19.30
2022-10-13T11:07:46.799Z,19.20
2022-10-13T11:10:35.889Z,19.20
2022-10-13T11:13:25.879Z,19.30
2022-10-13T11:16:27.988Z,19.50
2022-10-13T11:19:32.055Z,19.60
2022-10-13T11:22:21.009Z,19.80
2022-10-13T11:25:27.352Z,20.00
2022-10-13T11:28:33.711Z,19.80
2022-10-13T11:31:29.781Z,19.80
2022-10-13T11:34:32.946Z,19.90
2022-10-13T11:37:20.626Z,19.90
2022-10-13T11:40:17.109Z,20.00
2022-10-13T11:43:19.452Z,20.20
2022-10-13T11:46:14.167Z,20.40
2022-10-13T11:49:32.000Z,20.50
2022-10-13T11:52:41.994Z,20.60
2022-10-13T11:55:40.141Z,20.70
2022-10-13T11:58:30.381Z,20.80
2022-10-13T12:01:19.997Z,20.80
2022-10-13T12:04:16.077Z,20.70
2022-10-13T12:07:06.216Z,20.70
2022-10-13T12:09:54.535Z,20.70
2022-10-13T12:12:47.364Z,20.80
2022-10-13T12:15:36.586Z,20.90
2022-10-13T12:18:25.098Z,21.10
2022-10-13T12:21:15.288Z,21.10
2022-10-13T12:24:11.485Z,21.10
2022-10-13T12:26:59.517Z,21.20
2022-10-13T12:29:48.344Z,21.30
2022-10-13T12:32:36.174Z,21.30
2022-10-13T12:35:25.129Z,21.30
2022-10-13T12:38:17.677Z,21.40
2022-10-13T12:41:06.877Z,21.30
2022-10-13T12:43:54.771Z,21.40
2022-10-13T12:46:42.946Z,21.40
2022-10-13T12:49:31.881Z,21.20
2022-10-13T12:52:23.119Z,21.10
2022-10-13T12:55:14.976Z,21.30
2022-10-13T12:58:04.557Z,21.40
2022-10-13T13:00:59.886Z,21.40
2022-10-13T13:03:54.677Z,21.50
2022-10-13T13:06:52.752Z,21.50
2022-10-13T13:09:42.980Z,21.60
2022-10-13T13:12:31.448Z,21.60
2022-10-13T13:15:22.359Z,21.70
2022-10-13T13:18:36.001Z,21.80
2022-10-13T13:21:23.755Z,21.80
2022-10-13T13:24:21.932Z,21.80
2022-10-13T13:27:18.310Z,21.80
2022-10-13T13:30:10.992Z,21.90
2022-10-13T13:33:00.330Z,22.00
2022-10-13T13:35:49.242Z,22.10
2022-10-13T13:38:37.698Z,22.10
2022-10-13T13:41:28.044Z,22.20
2022-10-13T13:44:15.672Z,22.40
2022-10-13T13:47:04.866Z,22.40
2022-10-13T13:49:55.159Z,22.50
2022-10-13T13:52:42.661Z,22.60
2022-10-13T13:55:30.861Z,22.50
2022-10-13T13:58:18.534Z,22.50
2022-10-13T14:01:06.050Z,22.50
2022-10-13T14:03:54.298Z,22.60
2022-10-13T14:06:43.123Z,22.60
2022-10-13T14:09:31.353Z,22.50
2022-10-13T14:12:18.937Z,22.40
2022-10-13T14:15:07.828Z,22.30
2022-10-13T14:17:55.754Z,22.20
2022-10-13T14:20:43.898Z,22.30
2022-10-13T14:23:33.185Z,22.40
2022-10-13T14:26:20.764Z,22.50
2022-10-13T14:29:08.442Z,22.70
2022-10-13T14:31:56.264Z,22.70
2022-10-13T14:34:43.667Z,22.60
2022-10-13T14:37:33.471Z,22.60
2022-10-13T14:40:23.154Z,22.40
2022-10-13T14:43:10.714Z,22.30
2022-10-13T14:46:02.168Z,22.20
2022-10-13T14:48:49.623Z,22.10
2022-10-13T14:51:37.164Z,21.90
2022-10-13T14:54:24.932Z,21.30
2022-10-13T14:57:17.008Z,20.60
2022-10-13T15:00:05.177Z,19.90
2022-10-13T15:02:52.933Z,19.20
2022-10-13T15:05:40.952Z,18.60
2022-10-13T15:08:28.462Z,18.10
2022-10-13T15:11:18.146Z,17.70
2022-10-13T15:14:07.564Z,17.30
2022-10-13T15:16:55.331Z,17.00
2022-10-13T15:19:45.861Z,16.70
2022-10-13T15:22:33.402Z,16.50
2022-10-13T15:25:30.439Z,16.20
2022-10-13T15:28:18.670Z,16.00
2022-10-13T15:31:09.074Z,15.80
2022-10-13T15:33:57.178Z,15.60
2022-10-13T15:36:45.013Z,15.40
2022-10-13T15:39:32.652Z,15.10
2022-10-13T15:42:20.760Z,15.00
2022-10-13T15:45:11.171Z,14.70
2022-10-13T15:48:00.816Z,14.50
2022-10-13T15:50:50.283Z,14.30
2022-10-13T15:53:38.013Z,14.00
2022-10-13T15:56:26.317Z,13.80
2022-10-13T15:59:14.774Z,13.60
2022-10-13T16:02:02.474Z,13.30
2022-10-13T16:04:51.652Z,13.10
2022-10-13T16:07:41.466Z,12.90
2022-10-13T16:10:29.540Z,12.70
2022-10-13T16:13:17.524Z,12.50
2022-10-13T16:16:05.797Z,12.30
2022-10-13T16:18:53.731Z,12.10
2022-10-13T16:21:43.402Z,12.00
2022-10-13T16:24:31.612Z,11.90
2022-10-13T16:27:19.655Z,11.80
2022-10-13T16:30:09.471Z,11.60
2022-10-13T16:32:57.852Z,11.50
2022-10-13T16:35:46.151Z,11.50
2022-10-13T16:38:36.055Z,11.40
2022-10-13T16:41:24.011Z,11.30
2022-10-13T16:44:11.643Z,11.30
2022-10-13T16:47:00.776Z,11.20
2022-10-13T16:49:48.329Z,11.20
2022-10-13T16:52:37.386Z,11.20
2022-10-13T16:55:26.777Z,11.20
2022-10-13T16:58:14.597Z,11.10
2022-10-13T17:01:08.749Z,11.10
2022-10-13T17:03:56.386Z,11.00
2022-10-13T17:06:44.269Z,10.90
2022-10-13T17:09:31.663Z,10.80
2022-10-13T17:12:21.415Z,10.70
2022-10-13T17:15:09.960Z,10.60
2022-10-13T17:17:59.246Z,10.50
2022-10-13T17:20:53.554Z,10.40
2022-10-13T17:23:45.878Z,10.30
2022-10-13T17:26:35.851Z,10.20
2022-10-13T17:29:24.738Z,10.10
2022-10-13T17:32:14.246Z,10.10
2022-10-13T17:35:01.936Z,10.10
2022-10-13T17:37:50.365Z,10.00
2022-10-13T17:40:39.156Z,10.00
2022-10-13T17:43:27.169Z,10.00
2022-10-13T17:49:24.444Z,9.90
2022-10-13T17:52:12.356Z,9.80
2022-10-13T17:54:59.996Z,9.80
2022-10-13T17:57:48.705Z,9.70
2022-10-13T18:00:54.167Z,9.70
2022-10-13T18:03:45.995Z,9.70
2022-10-13T18:06:38.495Z,9.70
2022-10-13T18:09:26.152Z,9.70
2022-10-13T18:12:13.866Z,9.70
2022-10-13T18:15:01.222Z,9.70
2022-10-13T18:17:48.954Z,9.60
2022-10-13T18:20:39.527Z,9.60
2022-10-13T18:23:27.133Z,9.60
2022-10-13T18:26:16.427Z,9.60
2022-10-13T18:29:04.983Z,9.60
2022-10-13T18:31:55.376Z,9.60
2022-10-13T18:34:42.994Z,9.70
2022-10-13T18:37:32.143Z,9.70
2022-10-13T18:40:19.824Z,9.70
2022-10-13T18:43:09.082Z,9.70
2022-10-13T18:45:59.643Z,9.80
2022-10-13T18:48:47.616Z,9.70
2022-10-13T18:51:36.608Z,9.70
2022-10-13T18:54:25.771Z,9.60
2022-10-13T18:57:13.544Z,9.50
2022-10-13T19:00:01.770Z,9.40
2022-10-13T19:02:50.412Z,9.20
2022-10-13T19:05:39.340Z,9.10
2022-10-13T19:08:27.552Z,9.10
2022-10-13T19:11:17.955Z,9.00
2022-10-13T19:14:05.727Z,9.00
2022-10-13T19:16:56.117Z,9.00
2022-10-13T19:19:48.928Z,9.00
2022-10-13T19:22:36.654Z,9.00
2022-10-13T19:25:25.579Z,9.00
2022-10-13T19:28:14.847Z,8.90
2022-10-13T19:31:08.604Z,9.00
2022-10-13T19:33:56.195Z,9.00
2022-10-13T19:36:44.720Z,9.00
2022-10-13T19:39:32.488Z,8.90
2022-10-13T19:42:20.192Z,8.80
2022-10-13T19:45:09.828Z,8.80
2022-10-13T19:47:57.267Z,8.70
2022-10-13T19:50:47.209Z,8.50
2022-10-13T19:53:37.048Z,8.40
2022-10-13T19:56:26.818Z,8.40
2022-10-13T19:59:14.364Z,8.30
2022-10-13T20:02:03.829Z,8.20
2022-10-13T20:04:51.334Z,8.10
2022-10-13T20:07:39.055Z,8.10
2022-10-13T20:10:26.542Z,8.00
2022-10-13T20:13:17.486Z,8.00
2022-10-13T20:16:08.500Z,8.00
2022-10-13T20:18:58.546Z,8.00
2022-10-13T20:21:46.220Z,8.00
2022-10-13T20:24:33.946Z,8.00
2022-10-13T20:27:21.664Z,8.00
2022-10-13T20:30:10.794Z,8.00
2022-10-13T20:32:58.884Z,8.00
2022-10-13T20:35:48.243Z,8.00
2022-10-13T20:38:36.294Z,8.00
2022-10-13T20:41:25.936Z,8.10
2022-10-13T20:44:13.251Z,8.10
2022-10-13T20:47:00.693Z,8.10
2022-10-13T20:49:48.282Z,8.10
2022-10-13T20:52:38.783Z,8.10
2022-10-13T20:55:26.544Z,8.20
2022-10-13T20:58:14.368Z,8.20
2022-10-13T21:01:02.216Z,8.10
2022-10-13T21:03:52.308Z,8.10
2022-10-13T21:06:40.058Z,8.20
2022-10-13T21:09:28.898Z,8.20
2022-10-13T21:12:16.734Z,8.20
2022-10-13T21:15:04.241Z,8.10
2022-10-13T21:17:52.299Z,8.10
2022-10-13T21:20:42.034Z,8.10
2022-10-13T21:23:29.950Z,8.00
2022-10-13T21:26:21.898Z,8.00
2022-10-13T21:29:09.815Z,7.90
2022-10-13T21:31:57.446Z,7.80
2022-10-13T21:34:45.068Z,7.70
2022-10-13T21:37:35.254Z,7.70
2022-10-13T21:40:23.071Z,7.60
2022-10-13T21:43:12.174Z,7.50
2022-10-13T21:46:08.613Z,7.40
2022-10-13T21:49:00.017Z,7.40
2022-10-13T21:51:47.488Z,7.30
2022-10-13T21:54:34.850Z,7.30
2022-10-13T21:57:22.522Z,7.20
2022-10-13T22:00:12.436Z,7.10
2022-10-13T22:03:00.438Z,7.10
2022-10-13T22:05:48.513Z,7.10
2022-10-13T22:08:38.610Z,7.00
2022-10-13T22:11:35.619Z,7.00
2022-10-13T22:14:30.856Z,7.00
2022-10-13T22:17:20.256Z,7.00
2022-10-13T22:20:08.344Z,7.00
2022-10-13T22:22:55.964Z,7.00
2022-10-13T22:25:47.094Z,7.00
2022-10-13T22:28:37.218Z,7.00
2022-10-13T22:31:25.206Z,6.90
2022-10-13T22:34:15.019Z,6.90
2022-10-13T22:37:02.971Z,6.90
2022-10-13T22:39:52.033Z,6.80
2022-10-13T22:42:39.756Z,6.80
2022-10-13T22:45:27.180Z,6.80
2022-10-13T22:48:14.750Z,6.70
2022-10-13T22:51:05.102Z,6.70
2022-10-13T22:53:53.052Z,6.70
2022-10-13T22:56:41.440Z,6.70
2022-10-13T22:59:29.400Z,6.70
2022-10-13T23:02:16.714Z,6.70
2022-10-13T23:05:04.480Z,6.70
2022-10-13T23:07:53.413Z,6.70
2022-10-13T23:10:42.763Z,6.70
2022-10-13T23:13:30.170Z,6.70
2022-10-13T23:16:19.408Z,6.70
2022-10-13T23:19:07.643Z,6.70
2022-10-13T23:21:55.193Z,6.70
2022-10-13T23:24:43.900Z,6.70
2022-10-13T23:27:31.485Z,6.70
2022-10-13T23:30:19.537Z,6.70
2022-10-13T23:33:06.988Z,6.70
2022-10-13T23:35:56.185Z,6.80
2022-10-13T23:38:43.786Z,6.80
2022-10-13T23:41:32.905Z,6.80
2022-10-13T23:44:21.229Z,6.90
2022-10-13T23:47:11.115Z,6.90
2022-10-13T23:49:58.751Z,6.90
2022-10-13T23:52:46.219Z,7.00
2022-10-13T23:55:33.753Z,7.00
2022-10-13T23:58:22.922Z,7.00
